Portada
METAR-TAF:

METAR-TAF

Aeroports :

Manta, Equador

latitud: 00-57S, longitud: 080-41W, altitud: 13 m

Observació

L'informe es va fer fa 29 minuts, a les 14:00 UTC
Vent calma
Temperatura 25°C
Humitat 79%
Pressió 1012 hPa
Visibilitat 10 km o més
Cel cobert a una alçada de 2600 ft

METAR: SEMT 141400Z 00000KT 9999 OVC026 25/21 Q1012 RMK A2990

Hora: 09:29 (14:29 UTC)

Pronòstic

L'informe es va fer fa 4 hores i 19 minuts, a les 10:10 UTC
Pronòstic vàlid del 14 a les 12 UTC al 15 a les 12 UTC
Vent 7 kt del Sud/Sud-Oest
Visibilitat 10 km o més
Cel ennuvolat a una alçada de 2300 ft
Evolucionant progressivament
l' 14 a les 20 UTC al 14 a les 22 UTC
Núvols disperses a una alçada de 2300 ft
Evolucionant progressivament
l' 15 a les 00 UTC al 15 a les 02 UTC
Cel ennuvolat a una alçada de 2000 ft

TAF: SEMT 141010Z 1412/1512 21007KT 9999 BKN023 BECMG 1420/1422 SCT023 BECMG 1500/1502 BKN020 TX28/1420Z TN22/1510Z

Observacions i pronòstics meteorològics de més de 4000 aeroports (METAR i TAF).

Les estacions disponibles són els punts grocs i vermells al mapa.

Posi el ratolí al punt desitjat per veure el nom de l'estació.

Feu clic per veure les observacions i els pronòstics meteorològics.

Per canviar el mapa: feu clic els botons verds amb una creu de color negre per apropar; al botó verd amb un guió per allunyar la imatge; o en les fletxes verdes per a mapes adjacents.


METAR-TAF: